METAR AND TAF INFORMATION
METAR FOR USSS
ADDS - METARS form results

(2023 UTC 28 September 2021)
Data provider http://aviationweather.gov/metar/data/
 
METAR text: USSS 282000Z 36005MPS 9999 SCT045 04/M01 Q1023 R08R/010060 R08L/010060 NOSIG RMK QFE747/0996
Conditions at: USSS (EKATERINBURG , RU) observed 2000 UTC 28 September 2021
Temperature: 4.0°C (39°F)
Dewpoint: -1.0°C (30°F) [RH = 70%]
Pressure (altimeter): 30.21 inches Hg (1023.0 mb)
Winds: from the N (360 degrees) at 12 MPH (10 knots; 5.1 m/s)
Visibility: 6 or more miles (10+ km)
Ceiling: at least 12,000 feet AGL
Clouds: scattered clouds at 4500 feet AGL
Weather: no significant weather observed at this time

METAR text: USSS 281930Z 36004MPS 9999 SCT043 04/M02 Q1023 R08R/010060 R08L/010060 NOSIG RMK QFE747/0996
Conditions at: USSS (EKATERINBURG , RU) observed 1930 UTC 28 September 2021
Temperature: 4.0°C (39°F)
Dewpoint: -2.0°C (28°F) [RH = 65%]
Pressure (altimeter): 30.21 inches Hg (1023.0 mb)
Winds: from the N (360 degrees) at 9 MPH (8 knots; 4.1 m/s)
Visibility: 6 or more miles (10+ km)
Ceiling: at least 12,000 feet AGL
Clouds: scattered clouds at 4300 feet AGL
Weather: no significant weather observed at this time

Forecast for: USSS (EKATERINBURG , RU)
Text: TAF USSS 281949Z 2821/2921 36003G13MPS 9999 SCT020
Forecast period: 2100 UTC 28 September 2021 to 2100 UTC 29 September 2021
Forecast type: FROM: standard forecast or significant change
Winds: from the N (360 degrees) at 7 MPH (6 knots; 3.1 m/s)
gusting to 29 MPH (25 knots; 12.9 m/s)
Visibility: 6 or more miles (10+ km)
Ceiling: at least 12,000 feet AGL
Clouds: scattered clouds at 2000 feet AGL
Weather: no significant weather forecast for this period

 AIRPORT MAP

 RUNWAY INFORMATION

 AIRPORT FREQUENCIES
Type APP Name APP Frequency 125.9 MHZ
Type ATIS Name ATIS Frequency 127.8 MHZ
Type GCA Name GCA Frequency 120 MHZ
Type GND Name GND Frequency 119 MHZ
Type RDR Name ASR Frequency 118.7 MHZ
Type TWR Name TWR Frequency 120 MHZ

 AIRPORT NEAR NAVIGATION AIDS
Type NDB Name Koltsovo Frequency 786 KHZ
Type NDB Name Koltsovo Frequency 786 KHZ
Type NDB Name Koltsovo Frequency 370 KHZ
Type NDB Name Koltsovo Frequency 370 KHZ



2018 Air Astana Virtual Airline